createdAt,value
2023-06-11T00:00:01.962Z,17.35
2023-06-11T00:05:04.024Z,17.39
2023-06-11T00:10:05.436Z,17.42
2023-06-11T00:15:07.226Z,17.42
2023-06-11T00:20:09.298Z,17.43
2023-06-11T00:25:11.660Z,17.44
2023-06-11T00:30:13.052Z,17.37
2023-06-11T00:35:14.772Z,17.34
2023-06-11T00:40:16.296Z,17.33
2023-06-11T00:45:18.091Z,17.26
2023-06-11T00:50:19.438Z,17.28
2023-06-11T00:55:21.420Z,17.24
2023-06-11T01:00:22.911Z,17.2
2023-06-11T01:05:24.675Z,17.23
2023-06-11T01:10:25.937Z,17.25
2023-06-11T01:15:27.317Z,17.21
2023-06-11T01:20:28.871Z,17.19
2023-06-11T01:25:30.661Z,17.08
2023-06-11T01:30:32.498Z,17.03
2023-06-11T01:35:34.690Z,17.01
2023-06-11T01:40:36.219Z,16.95
2023-06-11T01:45:37.907Z,16.95
2023-06-11T01:50:39.851Z,16.92
2023-06-11T01:55:41.367Z,16.85
2023-06-11T02:00:43.063Z,16.84
2023-06-11T02:05:45.030Z,16.79
2023-06-11T02:10:46.537Z,16.75
2023-06-11T02:15:48.052Z,16.76
2023-06-11T02:20:49.290Z,16.76
2023-06-11T02:25:50.456Z,16.74
2023-06-11T02:30:52.343Z,16.76
2023-06-11T02:35:53.854Z,16.78
2023-06-11T02:40:55.955Z,16.7
2023-06-11T02:45:57.680Z,16.73
2023-06-11T02:50:59.758Z,16.73
2023-06-11T02:56:01.477Z,16.66
2023-06-11T03:01:03.529Z,16.67
2023-06-11T03:06:05.491Z,16.66
2023-06-11T03:11:06.834Z,16.61
2023-06-11T03:16:08.184Z,16.62
2023-06-11T03:21:09.479Z,16.62
2023-06-11T03:26:10.956Z,16.54
2023-06-11T03:31:12.249Z,16.56
2023-06-11T03:36:13.484Z,16.56
2023-06-11T03:41:15.493Z,16.4
2023-06-11T03:46:17.483Z,16.41
2023-06-11T03:51:18.968Z,16.41
2023-06-11T03:56:20.241Z,16.34
2023-06-11T04:01:21.956Z,16.39
2023-06-11T04:06:23.957Z,16.42
2023-06-11T04:11:25.465Z,16.39
2023-06-11T04:16:27.287Z,16.44
2023-06-11T04:21:29.396Z,16.5
2023-06-11T04:26:30.872Z,16.51
2023-06-11T04:31:32.327Z,16.56
2023-06-11T04:36:34.240Z,16.67
2023-06-11T04:41:36.092Z,16.71
2023-06-11T04:46:37.245Z,16.85
2023-06-11T04:51:38.501Z,16.98
2023-06-11T04:56:41.330Z,17.11
2023-06-11T05:01:42.052Z,17.28
2023-06-11T05:06:43.478Z,17.48
2023-06-11T05:11:45.758Z,17.67
2023-06-11T05:16:47.071Z,17.91
2023-06-11T05:21:48.296Z,18.17
2023-06-11T05:26:49.734Z,18.45
2023-06-11T05:31:51.749Z,18.81
2023-06-11T05:36:53.142Z,19.19
2023-06-11T05:41:54.562Z,19.54
2023-06-11T05:46:56.357Z,20.04
2023-06-11T05:51:58.171Z,20.46
2023-06-11T05:56:59.368Z,20.9
2023-06-11T06:02:00.565Z,21.28
2023-06-11T06:07:02.221Z,21.73
2023-06-11T06:12:03.711Z,22.18
2023-06-11T06:17:05.709Z,22.57
2023-06-11T06:22:07.792Z,23.11
2023-06-11T06:27:09.872Z,23.75
2023-06-11T06:32:11.372Z,24.01
2023-06-11T06:37:13.310Z,24.11
2023-06-11T06:42:14.544Z,24.5
2023-06-11T06:47:16.488Z,24.78
2023-06-11T06:52:19.008Z,24.88
2023-06-11T06:57:18.959Z,24.81
2023-06-11T07:02:20.269Z,24.79
2023-06-11T07:07:22.207Z,24.98
2023-06-11T07:12:24.223Z,25.26
2023-06-11T07:52:37.857Z,25.92
2023-06-11T08:32:52.636Z,26.69
2023-06-11T08:37:53.628Z,26.67
2023-06-11T08:52:59.177Z,26.32
2023-06-11T09:33:11.376Z,25.7
2023-06-11T09:58:19.040Z,25.42
2023-06-11T10:18:25.721Z,25.26
2023-06-11T10:23:27.784Z,25.39
2023-06-11T10:28:29.108Z,25.47
2023-06-11T10:33:30.657Z,25.3
2023-06-11T10:38:31.826Z,25.42
2023-06-11T10:43:33.453Z,25.31
2023-06-11T10:48:34.953Z,24.85
2023-06-11T10:53:36.245Z,24.95
2023-06-11T10:58:38.144Z,25.07
2023-06-11T11:03:39.939Z,25.31
2023-06-11T11:08:41.614Z,25.1
2023-06-11T11:13:43.240Z,25.19
2023-06-11T11:18:44.411Z,25.37
2023-06-11T11:23:45.969Z,25.31
2023-06-11T11:28:47.874Z,25.25
2023-06-11T11:33:49.498Z,25.15
2023-06-11T11:38:51.088Z,25.2
2023-06-11T11:43:52.666Z,25.1
2023-06-11T11:48:53.911Z,24.89
2023-06-11T11:53:55.901Z,25.06
2023-06-11T11:58:58.035Z,25.19
2023-06-11T12:03:59.543Z,25.18
2023-06-11T12:09:00.497Z,25.12
2023-06-11T12:14:02.398Z,25.12
2023-06-11T12:19:14.721Z,24.87
2023-06-11T12:24:06.441Z,24.7
2023-06-11T12:29:08.315Z,24.76
2023-06-11T12:34:09.603Z,25.09
2023-06-11T12:39:11.042Z,25.29
2023-06-11T12:44:12.676Z,25.18
2023-06-11T12:49:14.759Z,24.99
2023-06-11T12:54:16.524Z,25.14
2023-06-11T12:59:17.946Z,25.21
2023-06-11T13:04:19.568Z,25.24
2023-06-11T13:09:21.477Z,25.32
2023-06-11T13:14:23.411Z,25.56
2023-06-11T13:19:25.547Z,25.64
2023-06-11T13:24:27.443Z,25.49
2023-06-11T13:29:28.754Z,25.64
2023-06-11T13:34:30.017Z,25.8
2023-06-11T13:39:31.915Z,25.81
2023-06-11T13:44:33.463Z,25.75
2023-06-11T13:49:34.784Z,25.83
2023-06-11T13:54:36.708Z,25.66
2023-06-11T13:59:44.761Z,25.75
2023-06-11T14:04:46.739Z,25.64
2023-06-11T14:09:48.799Z,25.73
2023-06-11T14:14:50.410Z,25.67
2023-06-11T14:19:52.412Z,25.47
2023-06-11T14:24:53.956Z,25.43
2023-06-11T14:29:55.605Z,25.63
2023-06-11T14:34:59.348Z,25.68
2023-06-11T14:39:59.399Z,25.62
2023-06-11T14:45:01.058Z,25.63
2023-06-11T14:50:02.164Z,25.6
2023-06-11T14:55:03.793Z,25.64
2023-06-11T15:00:05.557Z,25.56
2023-06-11T15:05:06.905Z,25.63
2023-06-11T15:10:09.156Z,25.52
2023-06-11T15:15:12.518Z,25.46
2023-06-11T15:20:11.814Z,25.48
2023-06-11T15:25:12.952Z,25.55
2023-06-11T15:30:14.672Z,25.5
2023-06-11T15:35:16.418Z,25.35
2023-06-11T15:40:17.806Z,25.01
2023-06-11T15:45:19.300Z,25.05
2023-06-11T15:50:21.306Z,25.02
2023-06-11T15:55:23.139Z,24.9
2023-06-11T16:00:24.644Z,24.96
2023-06-11T16:05:26.328Z,25.06
2023-06-11T16:10:27.790Z,25.17
2023-06-11T16:15:28.952Z,25.08
2023-06-11T16:20:30.457Z,25.14
2023-06-11T16:25:31.831Z,25.28
2023-06-11T16:30:33.827Z,25.23
2023-06-11T16:35:35.490Z,25.04
2023-06-11T16:40:36.753Z,25.03
2023-06-11T16:45:38.528Z,25.1
2023-06-11T16:50:39.931Z,25.04
2023-06-11T16:55:41.367Z,24.79
2023-06-11T17:00:42.750Z,24.89
2023-06-11T17:05:44.351Z,25.04
2023-06-11T17:10:45.600Z,24.86
2023-06-11T17:15:47.184Z,24.85
2023-06-11T17:20:48.912Z,24.81
2023-06-11T17:25:50.244Z,24.8
2023-06-11T17:30:51.401Z,24.74
2023-06-11T17:35:53.305Z,24.68
2023-06-11T17:40:54.527Z,24.86
2023-06-11T17:45:56.282Z,24.88
2023-06-11T17:50:57.498Z,24.7
2023-06-11T17:55:59.286Z,24.68
2023-06-11T18:01:01.034Z,24.67
2023-06-11T18:06:02.152Z,24.57
2023-06-11T18:11:03.942Z,24.45
2023-06-11T18:16:05.990Z,24.5
2023-06-11T18:21:07.954Z,24.55
2023-06-11T18:26:09.292Z,24.46
2023-06-11T18:31:11.339Z,24.33
2023-06-11T18:36:13.001Z,24.19
2023-06-11T18:41:14.338Z,24.1
2023-06-11T18:46:16.233Z,24
2023-06-11T18:51:17.406Z,23.88
2023-06-11T18:56:19.377Z,23.8
2023-06-11T19:01:21.226Z,23.8
2023-06-11T19:06:22.563Z,23.61
2023-06-11T19:11:23.737Z,23.48
2023-06-11T19:16:25.424Z,23.35
2023-06-11T19:21:27.479Z,23.2
2023-06-11T19:26:29.393Z,23.06
2023-06-11T19:31:31.474Z,22.91
2023-06-11T19:36:33.257Z,22.77
2023-06-11T19:41:35.106Z,22.73
2023-06-11T19:46:36.450Z,22.49
2023-06-11T19:51:37.656Z,22.33
2023-06-11T19:56:39.827Z,22.22
2023-06-11T20:01:41.835Z,22.09
2023-06-11T20:06:44.170Z,21.95
2023-06-11T20:11:45.316Z,21.83
2023-06-11T20:16:46.944Z,21.7
2023-06-11T20:21:48.607Z,21.65
2023-06-11T20:26:50.377Z,21.59
2023-06-11T20:31:52.169Z,21.37
2023-06-11T20:36:53.292Z,21.25
2023-06-11T20:41:55.408Z,21.14
2023-06-11T20:46:57.138Z,20.96
2023-06-11T20:51:58.463Z,20.83
2023-06-11T20:57:00.599Z,20.73
2023-06-11T21:02:02.705Z,20.61
2023-06-11T21:07:04.114Z,20.5
2023-06-11T21:12:06.112Z,20.39
2023-06-11T21:17:07.869Z,20.29
2023-06-11T21:22:09.884Z,20.2
2023-06-11T21:27:11.620Z,20.23
2023-06-11T21:32:13.755Z,20.14
2023-06-11T21:37:15.122Z,20.04
2023-06-11T21:42:17.274Z,19.95
2023-06-11T21:47:19.406Z,19.87
2023-06-11T21:52:20.620Z,19.74
2023-06-11T21:57:22.152Z,19.65
2023-06-11T22:07:25.613Z,19.46
2023-06-11T22:57:42.652Z,18.78
2023-06-11T23:07:46.050Z,18.71
2023-06-11T23:17:49.084Z,18.66
2023-06-11T23:53:00.148Z,18.31
